Time;durP1;ratioP1;P1;durP2;ratioP2;P2;SDS_P1;SDS_P2;PMS_P1;PMS_P2;Temp;Humidity;BMP_temperature;BMP_pressure;BME280_temperature;BME280_humidity;BME280_pressure;Samples;Min_cycle;Max_cycle;Signal;HPM_P1;HPM_P2
2023/08/20 00:01:44;;;;;;;5.47;1.83;;;;;;;;;;4979370;28;20279;-70
2023/08/20 00:04:10;;;;;;;7.18;2.35;;;;;;;;;;4963446;28;20414;-70
2023/08/20 00:06:35;;;;;;;5.65;2.00;;;;;;;;;;4961462;28;20183;-69
2023/08/20 00:09:00;;;;;;;6.30;2.13;;;;;;;;;;4979763;28;20561;-69
2023/08/20 00:11:25;;;;;;;8.02;1.77;;;;;;;;;;4961827;28;20254;-71
2023/08/20 00:13:51;;;;;;;6.47;2.00;;;;;;;;;;4980354;28;20266;-70
2023/08/20 00:16:16;;;;;;;3.33;1.95;;;;;;;;;;4975739;28;20278;-70
2023/08/20 00:18:41;;;;;;;5.88;2.72;;;;;;;;;;4979590;28;20187;-70
2023/08/20 00:21:08;;;;;;;8.20;2.30;;;;;;;;;;4962614;28;21411;-70
2023/08/20 00:23:33;;;;;;;7.88;2.08;;;;;;;;;;4963500;28;20210;-70
2023/08/20 00:25:59;;;;;;;3.55;1.85;;;;;;;;;;4981086;28;20167;-70
2023/08/20 00:28:24;;;;;;;7.00;3.08;;;;;;;;;;4981243;28;20314;-70
2023/08/20 00:30:49;;;;;;;9.43;2.40;;;;;;;;;;4980620;28;20188;-70
2023/08/20 00:33:15;;;;;;;10.98;2.63;;;;;;;;;;4975616;28;20701;-70
2023/08/20 00:35:40;;;;;;;5.93;2.17;;;;;;;;;;4976947;28;20551;-70
2023/08/20 00:38:05;;;;;;;13.07;3.83;;;;;;;;;;4979200;28;20342;-70
2023/08/20 00:40:31;;;;;;;7.32;3.13;;;;;;;;;;4980095;28;20245;-70
2023/08/20 00:42:56;;;;;;;6.55;3.30;;;;;;;;;;4979381;28;20199;-70
2023/08/20 00:45:22;;;;;;;7.25;2.92;;;;;;;;;;4980073;28;20681;-70
2023/08/20 00:47:47;;;;;;;6.05;2.80;;;;;;;;;;4979382;28;20207;-70
2023/08/20 00:50:12;;;;;;;6.18;3.28;;;;;;;;;;4978003;28;20180;-70
2023/08/20 00:52:38;;;;;;;6.53;3.53;;;;;;;;;;4976302;28;20206;-70
2023/08/20 00:55:07;;;;;;;7.05;3.13;;;;;;;;;;4980193;28;20281;-70
2023/08/20 00:57:32;;;;;;;10.32;3.65;;;;;;;;;;4978399;28;20183;-69
2023/08/20 00:59:57;;;;;;;9.88;3.90;;;;;;;;;;4979011;28;20219;-70
2023/08/20 01:02:23;;;;;;;8.73;3.35;;;;;;;;;;4975608;28;20198;-70
2023/08/20 01:04:48;;;;;;;10.25;3.60;;;;;;;;;;4976824;28;20701;-70
2023/08/20 01:07:27;;;;;;;7.57;3.75;;;;;;;;;;4978081;28;20195;-70
2023/08/20 01:09:55;;;;;;;9.25;3.20;;;;;;;;;;4973026;28;20658;-70
2023/08/20 01:12:22;;;;;;;11.68;3.60;;;;;;;;;;4978289;28;20194;-70
2023/08/20 01:14:47;;;;;;;6.90;3.58;;;;;;;;;;4976726;28;20207;-70
2023/08/20 01:17:12;;;;;;;6.93;3.78;;;;;;;;;;4978985;28;20552;-69
2023/08/20 01:19:38;;;;;;;7.63;3.40;;;;;;;;;;4979142;28;20207;-69
2023/08/20 01:22:03;;;;;;;9.73;4.47;;;;;;;;;;4979137;28;20191;-70
2023/08/20 01:24:31;;;;;;;6.68;3.33;;;;;;;;;;4980305;28;20711;-70
2023/08/20 01:27:15;;;;;;;7.80;3.13;;;;;;;;;;4974200;28;20235;-70
2023/08/20 01:29:40;;;;;;;9.20;2.85;;;;;;;;;;4977564;28;20738;-70
2023/08/20 01:32:07;;;;;;;5.57;3.28;;;;;;;;;;4962038;28;20194;-70
2023/08/20 01:34:32;;;;;;;8.15;3.08;;;;;;;;;;4962618;28;20895;-70
2023/08/20 01:36:57;;;;;;;11.45;3.50;;;;;;;;;;4979526;28;20278;-70
2023/08/20 01:39:23;;;;;;;7.00;3.13;;;;;;;;;;4979083;28;20246;-70
2023/08/20 01:41:48;;;;;;;12.05;3.53;;;;;;;;;;4960311;28;21116;-70
2023/08/20 01:44:13;;;;;;;8.20;3.38;;;;;;;;;;4956261;28;20212;-71
2023/08/20 01:46:39;;;;;;;5.93;3.10;;;;;;;;;;4976265;28;20180;-70
2023/08/20 01:49:04;;;;;;;5.72;3.00;;;;;;;;;;4978744;28;20188;-70
2023/08/20 01:51:29;;;;;;;9.00;3.50;;;;;;;;;;4978968;28;20847;-70
2023/08/20 01:53:54;;;;;;;7.30;3.47;;;;;;;;;;4980073;28;20596;-71
2023/08/20 01:56:19;;;;;;;8.68;3.70;;;;;;;;;;4961353;28;20666;-71
2023/08/20 01:58:45;;;;;;;6.32;3.40;;;;;;;;;;4981026;28;20674;-70
2023/08/20 02:01:10;;;;;;;5.47;3.80;;;;;;;;;;4978346;28;20752;-71
2023/08/20 02:03:36;;;;;;;8.00;3.78;;;;;;;;;;4981977;28;20956;-70
2023/08/20 02:06:01;;;;;;;11.75;3.60;;;;;;;;;;4982116;28;20222;-70
2023/08/20 02:08:26;;;;;;;11.13;4.18;;;;;;;;;;4964638;28;20199;-71
2023/08/20 02:10:59;;;;;;;7.32;3.42;;;;;;;;;;4982189;28;20194;-70
2023/08/20 02:13:24;;;;;;;9.77;4.15;;;;;;;;;;4983119;28;20584;-70
2023/08/20 02:15:56;;;;;;;9.43;4.00;;;;;;;;;;4966249;28;20188;-70
2023/08/20 02:18:22;;;;;;;10.00;3.90;;;;;;;;;;4978169;28;20184;-70
2023/08/20 02:20:47;;;;;;;8.85;3.65;;;;;;;;;;4962910;28;20693;-70
2023/08/20 02:23:13;;;;;;;17.02;3.92;;;;;;;;;;4983604;28;20203;-70
2023/08/20 02:25:38;;;;;;;6.95;3.35;;;;;;;;;;4982718;28;20184;-70
2023/08/20 02:28:03;;;;;;;9.40;4.28;;;;;;;;;;4982088;28;20969;-70
2023/08/20 02:30:28;;;;;;;9.65;3.42;;;;;;;;;;4983038;28;20267;-70
2023/08/20 02:32:54;;;;;;;5.63;4.03;;;;;;;;;;4981323;28;20211;-70
2023/08/20 02:35:19;;;;;;;6.50;3.70;;;;;;;;;;4964751;28;20493;-70
2023/08/20 02:37:44;;;;;;;8.48;4.50;;;;;;;;;;4965316;28;21588;-70
2023/08/20 02:40:11;;;;;;;8.90;4.10;;;;;;;;;;4983433;28;20220;-70
2023/08/20 02:42:36;;;;;;;9.32;4.32;;;;;;;;;;4982493;28;20206;-70
2023/08/20 02:45:02;;;;;;;11.25;5.40;;;;;;;;;;4982911;28;20208;-70
2023/08/20 02:47:27;;;;;;;9.65;4.43;;;;;;;;;;4982072;28;20819;-70
2023/08/20 02:49:52;;;;;;;9.32;4.10;;;;;;;;;;4980057;28;20570;-71
2023/08/20 02:52:19;;;;;;;10.55;4.03;;;;;;;;;;4982497;28;20207;-71
2023/08/20 02:54:44;;;;;;;7.38;3.92;;;;;;;;;;4965146;28;20632;-71
2023/08/20 02:57:09;;;;;;;8.98;4.13;;;;;;;;;;4982685;28;20190;-70
2023/08/20 02:59:35;;;;;;;15.30;4.35;;;;;;;;;;4980335;28;20310;-70
2023/08/20 03:02:00;;;;;;;10.55;4.93;;;;;;;;;;4975831;28;20196;-70
2023/08/20 03:04:25;;;;;;;12.52;4.60;;;;;;;;;;4980824;28;20233;-70
2023/08/20 03:06:50;;;;;;;7.18;3.92;;;;;;;;;;4979529;28;20180;-70
2023/08/20 03:09:16;;;;;;;9.63;4.53;;;;;;;;;;4962093;28;20222;-71
2023/08/20 03:11:41;;;;;;;10.10;4.03;;;;;;;;;;4982167;28;20196;-70
2023/08/20 03:14:06;;;;;;;9.02;3.67;;;;;;;;;;4980617;28;20228;-70
2023/08/20 03:16:31;;;;;;;9.02;4.25;;;;;;;;;;4963609;28;20238;-70
2023/08/20 03:18:57;;;;;;;10.52;4.95;;;;;;;;;;4961928;28;20191;-70
2023/08/20 03:21:22;;;;;;;9.90;4.38;;;;;;;;;;4976628;28;20179;-70
2023/08/20 03:23:47;;;;;;;11.35;4.72;;;;;;;;;;4979327;28;20318;-70
2023/08/20 03:26:12;;;;;;;9.30;5.07;;;;;;;;;;4981719;28;20199;-70
2023/08/20 03:28:38;;;;;;;12.93;4.47;;;;;;;;;;4981788;28;20254;-70
2023/08/20 03:31:03;;;;;;;10.50;4.05;;;;;;;;;;4979736;28;20635;-70
2023/08/20 03:33:28;;;;;;;10.27;4.28;;;;;;;;;;4979705;28;20226;-70
2023/08/20 03:35:53;;;;;;;8.70;4.65;;;;;;;;;;4977776;28;20199;-71
2023/08/20 03:38:19;;;;;;;8.93;4.50;;;;;;;;;;4979079;28;20191;-71
2023/08/20 03:40:45;;;;;;;7.75;5.13;;;;;;;;;;4977334;28;20250;-71
2023/08/20 03:43:10;;;;;;;7.03;3.97;;;;;;;;;;4980687;28;20997;-71
2023/08/20 03:45:35;;;;;;;9.82;3.38;;;;;;;;;;4980720;28;20180;-70
2023/08/20 03:48:00;;;;;;;17.27;4.75;;;;;;;;;;4979826;28;20172;-71
2023/08/20 03:50:26;;;;;;;10.85;4.60;;;;;;;;;;4961873;28;20186;-71
2023/08/20 03:52:51;;;;;;;10.45;4.65;;;;;;;;;;4979539;28;20207;-70
2023/08/20 03:55:16;;;;;;;5.88;3.90;;;;;;;;;;4980641;28;20192;-71
2023/08/20 03:57:41;;;;;;;9.18;4.43;;;;;;;;;;4980430;28;20183;-71
2023/08/20 04:00:09;;;;;;;8.57;4.30;;;;;;;;;;4979444;28;20265;-70
2023/08/20 04:02:34;;;;;;;10.18;4.15;;;;;;;;;;4980606;28;20188;-70
2023/08/20 04:05:00;;;;;;;7.72;3.85;;;;;;;;;;4979891;28;20211;-70
2023/08/20 04:07:25;;;;;;;12.65;4.70;;;;;;;;;;4981271;28;20183;-70
2023/08/20 04:09:50;;;;;;;5.10;2.90;;;;;;;;;;4978942;28;20190;-70
2023/08/20 04:12:15;;;;;;;11.90;4.38;;;;;;;;;;4980173;28;20196;-70
2023/08/20 04:14:40;;;;;;;9.32;4.05;;;;;;;;;;4980677;28;20243;-70
2023/08/20 04:17:06;;;;;;;9.85;3.95;;;;;;;;;;4962256;28;20193;-70
2023/08/20 04:19:31;;;;;;;8.02;3.50;;;;;;;;;;4978106;28;20234;-69
2023/08/20 04:21:56;;;;;;;9.98;4.22;;;;;;;;;;4975367;28;20179;-70
2023/08/20 04:24:21;;;;;;;11.85;3.88;;;;;;;;;;4960406;28;20203;-70
2023/08/20 04:26:47;;;;;;;10.45;4.30;;;;;;;;;;4980159;28;20649;-70
2023/08/20 04:29:12;;;;;;;11.55;4.00;;;;;;;;;;4980419;28;20179;-69
2023/08/20 04:31:37;;;;;;;8.52;4.00;;;;;;;;;;4979744;28;20187;-69
2023/08/20 04:34:02;;;;;;;10.48;3.67;;;;;;;;;;4995279;22;20683;-67
2023/08/20 04:36:28;;;;;;;8.65;4.22;;;;;;;;;;4986549;28;20190;-67
2023/08/20 04:38:53;;;;;;;9.85;4.32;;;;;;;;;;4987777;28;20665;-66
2023/08/20 04:41:18;;;;;;;7.60;3.92;;;;;;;;;;4987763;28;20219;-67
2023/08/20 04:43:43;;;;;;;8.85;4.10;;;;;;;;;;4987259;28;20232;-67
2023/08/20 04:46:08;;;;;;;8.43;4.10;;;;;;;;;;4987841;28;20191;-67
2023/08/20 04:48:34;;;;;;;11.52;4.15;;;;;;;;;;4970328;28;20235;-66
2023/08/20 04:51:00;;;;;;;10.38;3.88;;;;;;;;;;4988123;28;20669;-67
2023/08/20 04:53:25;;;;;;;10.73;4.07;;;;;;;;;;4986596;28;20195;-67
2023/08/20 04:55:50;;;;;;;9.65;4.43;;;;;;;;;;4987684;28;20278;-67
2023/08/20 04:58:16;;;;;;;9.10;4.43;;;;;;;;;;4987741;28;20948;-68
2023/08/20 05:00:42;;;;;;;9.32;4.40;;;;;;;;;;4986736;28;20211;-67
2023/08/20 05:03:07;;;;;;;12.25;4.13;;;;;;;;;;4969058;28;20602;-67
2023/08/20 05:05:32;;;;;;;7.82;3.97;;;;;;;;;;4987516;28;20277;-67
2023/08/20 05:07:57;;;;;;;7.88;4.53;;;;;;;;;;4988644;28;20814;-67
2023/08/20 05:10:22;;;;;;;9.95;4.03;;;;;;;;;;4988971;28;20632;-67
2023/08/20 05:12:48;;;;;;;8.43;3.83;;;;;;;;;;4970757;28;20608;-67
2023/08/20 05:15:13;;;;;;;6.57;4.63;;;;;;;;;;4984004;28;20214;-67
2023/08/20 05:17:39;;;;;;;10.43;5.60;;;;;;;;;;4981541;28;20326;-67
2023/08/20 05:20:04;;;;;;;10.90;4.50;;;;;;;;;;4966661;28;20352;-68
2023/08/20 05:22:30;;;;;;;8.35;4.70;;;;;;;;;;4988148;28;20183;-68
2023/08/20 05:24:55;;;;;;;12.63;4.88;;;;;;;;;;4987984;28;20207;-68
2023/08/20 05:27:20;;;;;;;13.57;4.55;;;;;;;;;;4988444;28;20188;-68
2023/08/20 05:29:45;;;;;;;8.57;4.30;;;;;;;;;;4988895;28;20192;-68
2023/08/20 05:32:11;;;;;;;15.77;5.25;;;;;;;;;;4988805;28;20257;-68
2023/08/20 05:34:36;;;;;;;12.32;4.32;;;;;;;;;;4990593;28;20735;-67
2023/08/20 05:37:01;;;;;;;9.15;4.97;;;;;;;;;;4973168;28;20891;-67
2023/08/20 05:39:27;;;;;;;12.25;4.18;;;;;;;;;;4992019;28;20301;-68
2023/08/20 05:41:55;;;;;;;10.38;3.70;;;;;;;;;;4973228;28;20183;-68
2023/08/20 05:44:20;;;;;;;10.77;4.25;;;;;;;;;;4991358;28;20630;-67
2023/08/20 05:46:46;;;;;;;12.32;6.15;;;;;;;;;;4990982;28;20206;-68
2023/08/20 05:49:12;;;;;;;15.75;4.72;;;;;;;;;;4989655;28;20190;-68
2023/08/20 05:51:37;;;;;;;14.02;4.38;;;;;;;;;;4991970;28;20587;-67
2023/08/20 05:54:02;;;;;;;14.23;4.95;;;;;;;;;;4974260;28;20199;-68
2023/08/20 05:56:28;;;;;;;10.57;3.67;;;;;;;;;;4990541;28;20361;-68
2023/08/20 05:58:53;;;;;;;14.82;4.50;;;;;;;;;;4989981;28;20981;-68
2023/08/20 06:01:18;;;;;;;14.52;3.90;;;;;;;;;;4985537;28;20218;-67
2023/08/20 06:03:43;;;;;;;9.20;4.40;;;;;;;;;;4990736;28;20204;-67
2023/08/20 06:06:08;;;;;;;13.20;3.30;;;;;;;;;;4990310;28;21079;-68
2023/08/20 06:08:34;;;;;;;7.97;3.13;;;;;;;;;;4991529;28;20183;-68
2023/08/20 06:10:59;;;;;;;16.08;3.78;;;;;;;;;;4990733;28;20191;-68
2023/08/20 06:13:24;;;;;;;8.00;3.75;;;;;;;;;;4989445;28;20186;-68
2023/08/20 06:15:49;;;;;;;9.05;3.20;;;;;;;;;;4989722;28;20195;-68
2023/08/20 06:18:14;;;;;;;7.60;3.25;;;;;;;;;;4963662;28;20211;-68
2023/08/20 06:20:40;;;;;;;8.50;3.47;;;;;;;;;;4973430;28;20708;-68
2023/08/20 06:23:05;;;;;;;6.75;2.85;;;;;;;;;;4974010;28;20656;-68
2023/08/20 06:25:31;;;;;;;10.50;2.90;;;;;;;;;;4990614;28;20207;-68
2023/08/20 06:27:56;;;;;;;9.05;2.80;;;;;;;;;;4989947;28;20202;-66
2023/08/20 06:30:21;;;;;;;7.55;2.65;;;;;;;;;;4990495;28;20183;-67
2023/08/20 06:32:46;;;;;;;8.40;2.50;;;;;;;;;;4990430;28;20202;-67
2023/08/20 06:35:11;;;;;;;8.38;2.42;;;;;;;;;;4990408;28;20226;-67
2023/08/20 06:37:38;;;;;;;5.45;2.72;;;;;;;;;;4990439;28;20183;-67
2023/08/20 06:40:04;;;;;;;13.25;3.25;;;;;;;;;;4973827;28;20218;-67
2023/08/20 06:42:29;;;;;;;13.45;2.70;;;;;;;;;;4990440;28;20187;-67
2023/08/20 06:44:54;;;;;;;9.05;3.15;;;;;;;;;;4990252;28;20261;-67
2023/08/20 06:47:19;;;;;;;7.75;2.50;;;;;;;;;;4987441;28;20176;-67
2023/08/20 06:49:45;;;;;;;7.25;2.55;;;;;;;;;;4987908;28;20306;-66
2023/08/20 06:52:10;;;;;;;6.50;2.38;;;;;;;;;;4971508;28;20191;-67
2023/08/20 06:54:35;;;;;;;9.07;2.35;;;;;;;;;;4989921;28;20306;-67
2023/08/20 06:57:01;;;;;;;7.82;2.40;;;;;;;;;;4988975;28;20211;-67
2023/08/20 06:59:27;;;;;;;7.50;2.60;;;;;;;;;;4972656;28;20582;-67
2023/08/20 07:01:52;;;;;;;8.32;2.97;;;;;;;;;;4989033;28;20191;-67
2023/08/20 07:04:17;;;;;;;6.43;2.50;;;;;;;;;;4989422;28;20746;-66
2023/08/20 07:06:42;;;;;;;10.25;2.80;;;;;;;;;;4989213;28;20672;-66
2023/08/20 07:09:08;;;;;;;8.98;2.92;;;;;;;;;;4989108;28;20781;-67
2023/08/20 07:11:34;;;;;;;8.52;2.55;;;;;;;;;;4988964;28;20218;-66
2023/08/20 07:13:59;;;;;;;7.30;2.10;;;;;;;;;;4990323;28;20294;-66
2023/08/20 07:16:24;;;;;;;6.47;2.55;;;;;;;;;;4990191;28;21783;-67
2023/08/20 07:18:49;;;;;;;6.30;2.33;;;;;;;;;;4967275;28;20186;-67
2023/08/20 07:21:14;;;;;;;9.68;2.40;;;;;;;;;;4988776;28;20743;-66
2023/08/20 07:23:40;;;;;;;12.45;2.63;;;;;;;;;;4988957;28;20206;-67
2023/08/20 07:26:06;;;;;;;9.95;2.97;;;;;;;;;;4988650;28;20523;-67
2023/08/20 07:31:15;;;;;;;11.52;2.65;;;;;;;;;;4989620;28;20593;-67
2023/08/20 07:33:40;;;;;;;8.32;2.60;;;;;;;;;;4989011;28;20220;-67
2023/08/20 07:36:06;;;;;;;7.43;2.47;;;;;;;;;;4969872;28;20286;-67
2023/08/20 07:38:31;;;;;;;8.05;1.88;;;;;;;;;;4988869;28;20908;-67
2023/08/20 07:40:56;;;;;;;5.72;2.05;;;;;;;;;;4971797;28;20254;-67
2023/08/20 07:43:21;;;;;;;6.18;2.03;;;;;;;;;;4970919;28;20182;-67
2023/08/20 07:45:47;;;;;;;6.97;2.25;;;;;;;;;;4988258;28;20272;-67
2023/08/20 07:48:13;;;;;;;5.30;1.90;;;;;;;;;;4986053;28;20187;-67
2023/08/20 07:50:38;;;;;;;9.52;2.65;;;;;;;;;;4983064;28;21351;-68
2023/08/20 07:53:03;;;;;;;10.63;1.98;;;;;;;;;;4989266;28;20192;-68
2023/08/20 07:55:28;;;;;;;6.05;2.05;;;;;;;;;;4988753;28;20208;-68
2023/08/20 07:57:53;;;;;;;6.68;1.75;;;;;;;;;;4989142;28;20194;-67
2023/08/20 08:00:19;;;;;;;9.27;2.13;;;;;;;;;;4989207;28;20258;-67
2023/08/20 08:02:44;;;;;;;9.52;2.13;;;;;;;;;;4987542;28;20234;-67
2023/08/20 08:05:09;;;;;;;11.77;2.28;;;;;;;;;;4989141;28;20202;-68
2023/08/20 08:07:34;;;;;;;10.02;2.58;;;;;;;;;;4971258;28;20299;-67
2023/08/20 08:10:00;;;;;;;7.13;2.20;;;;;;;;;;4987335;28;20183;-66
2023/08/20 08:12:25;;;;;;;7.30;2.40;;;;;;;;;;4989696;28;20884;-67
2023/08/20 08:14:50;;;;;;;6.75;2.03;;;;;;;;;;4971346;28;20207;-67
2023/08/20 08:17:15;;;;;;;5.73;1.90;;;;;;;;;;4988559;28;20199;-66
2023/08/20 08:19:41;;;;;;;6.65;1.52;;;;;;;;;;4986605;28;20467;-67
2023/08/20 08:22:06;;;;;;;5.43;2.33;;;;;;;;;;4988549;28;20262;-67
2023/08/20 08:24:31;;;;;;;5.22;2.00;;;;;;;;;;4988983;28;21078;-66
2023/08/20 08:26:56;;;;;;;6.10;1.83;;;;;;;;;;4988311;28;20187;-67
2023/08/20 08:29:21;;;;;;;5.87;1.87;;;;;;;;;;4988967;28;20175;-67
2023/08/20 08:31:47;;;;;;;4.40;1.48;;;;;;;;;;4989303;28;20425;-67
2023/08/20 08:34:12;;;;;;;4.70;1.50;;;;;;;;;;4988414;28;20222;-68
2023/08/20 08:36:37;;;;;;;4.47;1.45;;;;;;;;;;4987455;28;20819;-67
2023/08/20 08:39:02;;;;;;;5.35;1.40;;;;;;;;;;4988971;28;20206;-67
2023/08/20 08:41:28;;;;;;;5.88;1.65;;;;;;;;;;4970463;28;20252;-67
2023/08/20 08:43:55;;;;;;;5.93;1.45;;;;;;;;;;4988891;28;20708;-67
2023/08/20 08:46:20;;;;;;;3.97;1.00;;;;;;;;;;4988567;28;20268;-66
2023/08/20 08:48:47;;;;;;;4.78;1.38;;;;;;;;;;4989033;28;20809;-68
2023/08/20 08:51:12;;;;;;;6.72;1.63;;;;;;;;;;4982148;28;20236;-66
2023/08/20 08:53:38;;;;;;;4.75;1.45;;;;;;;;;;4970444;28;20199;-66
2023/08/20 08:56:05;;;;;;;4.95;1.10;;;;;;;;;;4986076;28;20202;-66
2023/08/20 08:58:30;;;;;;;5.35;1.50;;;;;;;;;;4987748;28;20187;-66
2023/08/20 09:00:56;;;;;;;4.40;1.52;;;;;;;;;;4988418;28;20218;-66
2023/08/20 09:03:21;;;;;;;2.53;0.93;;;;;;;;;;4988514;28;20233;-67
2023/08/20 09:05:53;;;;;;;2.90;0.80;;;;;;;;;;4987034;28;21012;-67
2023/08/20 09:08:23;;;;;;;4.57;1.40;;;;;;;;;;4991109;28;20683;-67
2023/08/20 09:10:52;;;;;;;2.05;1.27;;;;;;;;;;4992423;28;20946;-67
2023/08/20 09:13:17;;;;;;;6.22;1.50;;;;;;;;;;4992400;28;20194;-67
2023/08/20 09:15:42;;;;;;;4.53;1.17;;;;;;;;;;4991700;28;20196;-67
2023/08/20 09:18:10;;;;;;;4.30;0.90;;;;;;;;;;4991202;28;20219;-67
2023/08/20 09:20:36;;;;;;;4.38;0.98;;;;;;;;;;4991851;28;20452;-67
2023/08/20 09:23:01;;;;;;;5.50;1.23;;;;;;;;;;4992194;28;20241;-70
2023/08/20 09:25:27;;;;;;;4.63;1.00;;;;;;;;;;4992039;28;21468;-70
2023/08/20 09:27:53;;;;;;;4.37;1.10;;;;;;;;;;4980557;28;20638;-70
2023/08/20 09:30:21;;;;;;;2.67;0.98;;;;;;;;;;4987657;28;20436;-70
2023/08/20 09:33:02;;;;;;;8.13;1.67;;;;;;;;;;4989252;28;20548;-69
2023/08/20 09:35:27;;;;;;;3.50;0.73;;;;;;;;;;4990750;28;20226;-70
2023/08/20 09:37:58;;;;;;;3.40;1.27;;;;;;;;;;4989849;28;20202;-70
2023/08/20 09:40:23;;;;;;;6.03;1.48;;;;;;;;;;4989616;28;20472;-69
2023/08/20 09:42:49;;;;;;;1.98;0.82;;;;;;;;;;4991183;28;20187;-71
2023/08/20 09:45:14;;;;;;;1.65;0.63;;;;;;;;;;4989988;28;20685;-70
2023/08/20 09:47:40;;;;;;;5.15;0.88;;;;;;;;;;4989809;28;20198;-71
2023/08/20 09:50:10;;;;;;;2.75;0.80;;;;;;;;;;4972525;28;20289;-71
2023/08/20 09:52:38;;;;;;;3.42;0.77;;;;;;;;;;4971655;28;20624;-71
2023/08/20 09:55:08;;;;;;;6.82;1.27;;;;;;;;;;4988355;28;20233;-70
2023/08/20 09:57:35;;;;;;;7.45;0.75;;;;;;;;;;4990365;28;20180;-70
2023/08/20 10:00:00;;;;;;;2.17;0.60;;;;;;;;;;4988866;28;20293;-70
2023/08/20 10:02:26;;;;;;;2.78;0.60;;;;;;;;;;4971237;28;20183;-70
2023/08/20 10:04:52;;;;;;;4.75;0.80;;;;;;;;;;4989351;28;20628;-70
2023/08/20 10:07:17;;;;;;;1.85;0.60;;;;;;;;;;4987494;28;20626;-71
2023/08/20 10:09:45;;;;;;;2.05;0.60;;;;;;;;;;4973162;28;20495;-71
2023/08/20 10:12:11;;;;;;;1.70;0.75;;;;;;;;;;4987756;28;20183;-70
2023/08/20 10:14:36;;;;;;;6.53;0.73;;;;;;;;;;4990220;28;20702;-70
2023/08/20 10:17:06;;;;;;;5.15;0.82;;;;;;;;;;4989596;28;20274;-70
2023/08/20 10:19:31;;;;;;;1.83;0.38;;;;;;;;;;4989263;28;20194;-71
2023/08/20 10:21:56;;;;;;;2.78;0.63;;;;;;;;;;4989876;28;20628;-70
2023/08/20 10:24:23;;;;;;;2.97;1.05;;;;;;;;;;4988483;28;20242;-71
2023/08/20 10:27:06;;;;;;;4.68;1.15;;;;;;;;;;4989406;28;20723;-70
2023/08/20 10:29:37;;;;;;;1.17;0.60;;;;;;;;;;4990538;28;20256;-71
2023/08/20 10:32:09;;;;;;;3.67;1.00;;;;;;;;;;4989148;28;20210;-71
2023/08/20 10:34:39;;;;;;;4.40;0.65;;;;;;;;;;4971688;22;1104989;-70
2023/08/20 10:37:13;;;;;;;3.38;0.60;;;;;;;;;;5010265;28;20190;-70
2023/08/20 10:39:39;;;;;;;3.33;0.65;;;;;;;;;;5009495;28;20198;-71
2023/08/20 10:42:26;;;;;;;3.78;0.63;;;;;;;;;;5009935;28;20186;-71
2023/08/20 10:45:03;;;;;;;0.85;0.70;;;;;;;;;;5004372;28;20207;-71
2023/08/20 10:47:55;;;;;;;4.40;0.60;;;;;;;;;;4991036;28;20226;-71
2023/08/20 10:50:20;;;;;;;2.72;1.10;;;;;;;;;;4993461;28;20218;-71
2023/08/20 10:52:49;;;;;;;2.00;0.80;;;;;;;;;;4999406;28;20324;-71
2023/08/20 10:55:15;;;;;;;3.97;0.90;;;;;;;;;;4996255;28;20354;-71
2023/08/20 10:57:40;;;;;;;2.00;1.05;;;;;;;;;;4998780;28;20904;-71
2023/08/20 11:00:10;;;;;;;3.60;0.50;;;;;;;;;;4996959;28;20907;-71
2023/08/20 11:02:36;;;;;;;1.27;0.50;;;;;;;;;;4996117;28;20555;-71
2023/08/20 11:05:02;;;;;;;2.30;0.70;;;;;;;;;;5000891;28;20203;-71
2023/08/20 11:07:30;;;;;;;2.00;0.43;;;;;;;;;;4999541;28;21040;-72
2023/08/20 11:09:56;;;;;;;5.00;1.00;;;;;;;;;;5000036;28;20195;-71
2023/08/20 11:12:21;;;;;;;4.75;0.80;;;;;;;;;;4998610;28;20183;-71
2023/08/20 11:14:46;;;;;;;1.10;0.32;;;;;;;;;;4998985;28;20213;-71
2023/08/20 11:17:11;;;;;;;2.37;0.63;;;;;;;;;;5001599;28;20219;-71
2023/08/20 11:19:37;;;;;;;4.75;1.70;;;;;;;;;;5000037;28;20546;-72
2023/08/20 11:22:02;;;;;;;4.22;0.90;;;;;;;;;;5001382;28;20183;-72
2023/08/20 11:24:30;;;;;;;2.47;0.70;;;;;;;;;;5001271;28;20673;-73
2023/08/20 11:26:55;;;;;;;2.05;0.60;;;;;;;;;;5000576;28;20330;-73
2023/08/20 11:29:21;;;;;;;2.47;0.60;;;;;;;;;;4999496;28;20213;-73
2023/08/20 11:31:46;;;;;;;3.33;1.05;;;;;;;;;;5000193;28;20941;-71
2023/08/20 11:34:12;;;;;;;3.00;0.45;;;;;;;;;;5000940;28;20207;-71
2023/08/20 11:36:39;;;;;;;1.65;0.70;;;;;;;;;;4999199;28;20195;-72
2023/08/20 11:39:04;;;;;;;2.40;0.70;;;;;;;;;;4999593;28;20187;-72
2023/08/20 11:41:29;;;;;;;2.58;0.50;;;;;;;;;;4997343;28;20672;-72
2023/08/20 11:43:55;;;;;;;3.55;1.15;;;;;;;;;;4999714;28;20185;-71
2023/08/20 11:46:22;;;;;;;2.75;0.80;;;;;;;;;;5000414;28;20198;-72
2023/08/20 11:49:06;;;;;;;2.67;0.80;;;;;;;;;;5000822;28;20221;-72
2023/08/20 11:51:38;;;;;;;1.98;0.60;;;;;;;;;;5076811;27;20545;-72
2023/08/20 11:54:07;;;;;;;4.70;1.30;;;;;;;;;;5067842;28;20217;-71
2023/08/20 11:56:33;;;;;;;2.88;0.77;;;;;;;;;;5065975;28;20658;-71
2023/08/20 11:58:59;;;;;;;4.03;0.88;;;;;;;;;;5062811;28;20584;-71
2023/08/20 12:01:24;;;;;;;3.78;1.08;;;;;;;;;;5064925;28;20183;-72
2023/08/20 12:03:49;;;;;;;3.55;0.85;;;;;;;;;;5059982;22;20241;-69
2023/08/20 12:06:25;;;;;;;2.53;0.83;;;;;;;;;;5023309;28;20181;-69
2023/08/20 12:08:50;;;;;;;3.63;1.30;;;;;;;;;;5022854;28;20925;-69
2023/08/20 12:11:15;;;;;;;4.20;0.83;;;;;;;;;;5023283;28;20210;-70
2023/08/20 12:13:40;;;;;;;5.20;0.80;;;;;;;;;;5025029;28;20446;-69
2023/08/20 12:16:06;;;;;;;3.78;0.82;;;;;;;;;;5024015;28;20445;-70
2023/08/20 12:18:31;;;;;;;2.05;0.68;;;;;;;;;;5033850;28;20566;-70
2023/08/20 12:20:56;;;;;;;2.45;0.70;;;;;;;;;;5031272;28;20182;-70
2023/08/20 12:23:22;;;;;;;4.13;0.98;;;;;;;;;;5032008;28;20625;-70
2023/08/20 12:25:50;;;;;;;2.67;0.88;;;;;;;;;;5032005;28;20181;-70
2023/08/20 12:28:16;;;;;;;3.15;0.60;;;;;;;;;;5032308;28;20221;-71
2023/08/20 12:30:41;;;;;;;3.15;0.88;;;;;;;;;;5033689;28;20210;-70
2023/08/20 12:33:06;;;;;;;3.63;1.13;;;;;;;;;;5031252;28;20213;-70
2023/08/20 12:35:31;;;;;;;4.87;1.30;;;;;;;;;;5034203;28;21363;-70
2023/08/20 12:37:57;;;;;;;0.97;0.67;;;;;;;;;;5033774;28;20426;-71
2023/08/20 12:40:22;;;;;;;3.10;0.63;;;;;;;;;;5033932;28;20430;-70
2023/08/20 12:42:47;;;;;;;4.47;0.97;;;;;;;;;;5032567;28;20438;-70
2023/08/20 12:45:13;;;;;;;3.03;0.90;;;;;;;;;;5031346;28;20435;-70
2023/08/20 12:47:38;;;;;;;2.42;0.68;;;;;;;;;;5033117;28;20426;-70
2023/08/20 12:50:04;;;;;;;1.77;0.65;;;;;;;;;;5032455;28;20642;-70
2023/08/20 12:52:30;;;;;;;4.60;1.13;;;;;;;;;;5032250;28;20195;-70
2023/08/20 12:54:55;;;;;;;2.42;0.70;;;;;;;;;;5032403;28;20722;-70
2023/08/20 12:57:20;;;;;;;4.15;1.02;;;;;;;;;;5031730;28;20185;-70
2023/08/20 12:59:46;;;;;;;3.58;1.48;;;;;;;;;;5032355;28;20892;-70
2023/08/20 13:02:12;;;;;;;2.00;0.70;;;;;;;;;;5021494;28;20194;-71
2023/08/20 13:04:37;;;;;;;2.67;0.90;;;;;;;;;;5019943;28;20458;-70
2023/08/20 13:07:03;;;;;;;1.90;0.80;;;;;;;;;;5017785;28;20275;-70
2023/08/20 13:09:28;;;;;;;3.53;1.35;;;;;;;;;;5015978;28;20260;-70
2023/08/20 13:11:55;;;;;;;4.85;1.13;;;;;;;;;;5019287;28;20681;-70
2023/08/20 13:14:20;;;;;;;1.88;0.65;;;;;;;;;;5017016;28;20229;-70
2023/08/20 13:16:46;;;;;;;4.80;1.15;;;;;;;;;;5017004;28;20269;-70
2023/08/20 13:19:11;;;;;;;3.33;0.93;;;;;;;;;;5014251;28;20178;-70
2023/08/20 13:21:36;;;;;;;2.83;0.95;;;;;;;;;;5019499;28;20200;-70
2023/08/20 13:24:02;;;;;;;4.00;1.00;;;;;;;;;;5019697;28;21058;-71
2023/08/20 13:26:27;;;;;;;3.30;0.93;;;;;;;;;;5014449;28;20427;-70
2023/08/20 13:28:52;;;;;;;4.30;1.17;;;;;;;;;;5018889;28;20192;-71
2023/08/20 13:31:18;;;;;;;5.00;1.07;;;;;;;;;;5016912;28;20473;-71
2023/08/20 13:33:43;;;;;;;2.43;0.57;;;;;;;;;;5016909;28;20493;-70
2023/08/20 13:36:08;;;;;;;2.47;0.60;;;;;;;;;;5017926;28;20438;-71
2023/08/20 13:38:34;;;;;;;3.28;0.82;;;;;;;;;;5011981;28;20189;-71
2023/08/20 13:40:59;;;;;;;2.72;0.85;;;;;;;;;;5016658;28;20182;-70
2023/08/20 13:43:24;;;;;;;3.20;1.00;;;;;;;;;;5017583;28;20249;-70
2023/08/20 13:45:49;;;;;;;2.60;0.70;;;;;;;;;;5018070;28;20186;-71
2023/08/20 13:48:15;;;;;;;2.77;0.60;;;;;;;;;;5014550;28;20484;-70
2023/08/20 13:50:40;;;;;;;3.03;0.73;;;;;;;;;;5017623;28;20228;-70
2023/08/20 13:53:05;;;;;;;4.40;0.83;;;;;;;;;;5015623;28;20458;-70
2023/08/20 13:55:31;;;;;;;2.92;0.75;;;;;;;;;;5017505;28;20739;-70
2023/08/20 13:57:56;;;;;;;1.83;0.73;;;;;;;;;;5018529;28;20235;-70
2023/08/20 14:00:21;;;;;;;3.88;0.98;;;;;;;;;;5018476;28;20972;-70
2023/08/20 14:02:47;;;;;;;4.13;1.30;;;;;;;;;;5014942;28;20185;-70
2023/08/20 14:05:12;;;;;;;2.55;0.75;;;;;;;;;;5015319;28;20660;-71
2023/08/20 14:07:38;;;;;;;2.17;1.13;;;;;;;;;;5017926;28;20194;-70
2023/08/20 14:10:06;;;;;;;2.75;0.90;;;;;;;;;;5017570;28;20210;-70
2023/08/20 14:12:31;;;;;;;4.63;1.08;;;;;;;;;;5015436;28;20197;-71
2023/08/20 14:14:57;;;;;;;2.07;0.70;;;;;;;;;;5015419;28;20213;-71
2023/08/20 14:17:22;;;;;;;3.60;0.90;;;;;;;;;;5014624;28;20459;-71
2023/08/20 14:19:47;;;;;;;6.22;1.10;;;;;;;;;;5010816;28;20427;-71
2023/08/20 14:22:12;;;;;;;4.25;1.45;;;;;;;;;;5043083;28;20194;-71
2023/08/20 14:24:38;;;;;;;3.17;0.80;;;;;;;;;;5016134;28;20821;-70
2023/08/20 14:27:03;;;;;;;3.43;0.80;;;;;;;;;;5016732;28;20224;-71
2023/08/20 14:29:28;;;;;;;2.85;0.88;;;;;;;;;;5016072;28;20522;-71
2023/08/20 14:31:53;;;;;;;6.82;1.13;;;;;;;;;;5013655;28;20240;-71
2023/08/20 14:34:19;;;;;;;3.50;1.00;;;;;;;;;;5015675;28;20620;-71
2023/08/20 14:36:44;;;;;;;3.75;0.82;;;;;;;;;;5012776;28;20190;-71